Time;durP1;ratioP1;P1;durP2;ratioP2;P2;SDS_P1;SDS_P2;PMS_P1;PMS_P2;Temp;Humidity;BMP_temperature;BMP_pressure;BME280_temperature;BME280_humidity;BME280_pressure;Samples;Min_cycle;Max_cycle;Signal;HPM_P1;HPM_P2
2022/04/14 00:01:24;;;;;;;12.20;7.10;;;11.80;99.90;;;;;;5002390;28;20285;-78
2022/04/14 00:03:50;;;;;;;15.60;8.07;;;11.80;99.90;;;;;;5023843;28;20820;-80
2022/04/14 00:06:16;;;;;;;17.37;8.67;;;11.70;99.90;;;;;;5007227;28;20102;-80
2022/04/14 00:08:41;;;;;;;19.27;8.43;;;11.80;99.90;;;;;;5001801;28;20076;-79
2022/04/14 00:11:07;;;;;;;14.23;7.67;;;11.70;99.90;;;;;;5026823;28;20072;-79
2022/04/14 00:13:32;;;;;;;15.13;7.80;;;11.70;99.90;;;;;;5020917;28;20029;-78
2022/04/14 00:15:58;;;;;;;19.40;8.10;;;11.70;99.90;;;;;;5010015;28;20859;-79
2022/04/14 00:18:24;;;;;;;22.60;8.60;;;11.70;99.90;;;;;;5024894;28;20041;-79
2022/04/14 00:20:49;;;;;;;15.67;8.23;;;11.70;99.90;;;;;;4999832;28;20046;-79
2022/04/14 00:23:15;;;;;;;22.40;8.70;;;11.60;99.90;;;;;;5005981;28;20620;-80
2022/04/14 00:25:40;;;;;;;18.83;8.67;;;11.60;99.90;;;;;;5008098;28;20810;-80
2022/04/14 00:28:09;;;;;;;17.10;8.57;;;11.60;99.90;;;;;;4999759;28;20056;-80
2022/04/14 00:30:35;;;;;;;22.55;9.45;;;11.60;99.90;;;;;;5002026;28;20247;-80
2022/04/14 00:33:01;;;;;;;15.90;8.00;;;11.60;99.90;;;;;;5007812;28;20052;-80
2022/04/14 00:35:27;;;;;;;15.57;8.10;;;11.60;99.90;;;;;;5010804;28;20147;-80
2022/04/14 00:37:53;;;;;;;21.20;9.77;;;11.50;99.90;;;;;;5003586;28;20059;-80
2022/04/14 00:40:18;;;;;;;16.53;7.97;;;11.50;99.90;;;;;;5009718;28;20044;-80
2022/04/14 00:42:44;;;;;;;16.57;7.80;;;11.50;99.90;;;;;;5002668;28;20911;-79
2022/04/14 00:45:09;;;;;;;15.77;8.93;;;11.40;99.90;;;;;;5007273;28;20037;-79
2022/04/14 00:47:36;;;;;;;18.70;8.90;;;11.40;99.90;;;;;;5004593;28;20055;-80
2022/04/14 00:50:03;;;;;;;16.63;8.95;;;11.40;99.90;;;;;;5025885;28;20366;-79
2022/04/14 00:52:28;;;;;;;;;;;11.40;99.90;;;;;;5014755;28;20029;-78
2022/04/14 00:54:54;;;;;;;12.70;7.82;;;11.30;99.90;;;;;;5004824;28;19920;-80
2022/04/14 00:57:19;;;;;;;16.93;8.53;;;11.30;99.90;;;;;;5003305;28;20569;-80
2022/04/14 00:59:45;;;;;;;19.77;8.23;;;11.30;99.90;;;;;;5005435;28;20123;-80
2022/04/14 01:02:11;;;;;;;16.63;7.97;;;11.20;99.90;;;;;;5004139;28;20098;-79
2022/04/14 01:04:37;;;;;;;20.67;9.10;;;11.20;99.90;;;;;;5018787;28;20251;-79
2022/04/14 01:07:07;;;;;;;18.33;8.95;;;11.20;99.90;;;;;;5007910;28;20612;-79
2022/04/14 01:09:34;;;;;;;16.23;7.68;;;11.20;99.90;;;;;;5003948;28;20033;-76
2022/04/14 01:12:00;;;;;;;15.25;8.85;;;11.10;99.90;;;;;;5006223;28;20372;-78
2022/04/14 01:14:26;;;;;;;18.55;9.25;;;11.10;99.90;;;;;;5001894;28;20370;-78
2022/04/14 01:16:52;;;;;;;16.20;7.95;;;11.10;99.90;;;;;;5005123;28;20049;-80
2022/04/14 01:19:18;;;;;;;;;;;11.10;99.90;;;;;;5005677;28;20047;-79
2022/04/14 01:22:12;;;;;;;21.60;8.27;;;11.00;99.90;;;;;;4999636;28;19920;-80
2022/04/14 01:24:39;;;;;;;19.58;9.32;;;11.00;99.90;;;;;;5004616;28;20037;-79
2022/04/14 01:27:05;;;;;;;15.70;8.50;;;11.00;99.90;;;;;;5003615;28;20546;-79
2022/04/14 01:29:31;;;;;;;20.40;9.30;;;10.90;99.90;;;;;;5007646;28;20033;-79
2022/04/14 01:31:58;;;;;;;19.83;10.10;;;10.90;99.90;;;;;;5003903;28;20784;-79
2022/04/14 01:34:24;;;;;;;18.92;9.77;;;10.90;99.90;;;;;;5005637;28;20804;-79
2022/04/14 01:36:50;;;;;;;21.25;9.70;;;10.90;99.90;;;;;;5020453;28;20045;-80
2022/04/14 01:39:16;;;;;;;18.02;10.23;;;10.80;99.90;;;;;;5007556;28;20043;-82
2022/04/14 01:41:43;;;;;;;16.92;9.77;;;10.80;99.90;;;;;;5007989;28;20051;-82
2022/04/14 01:44:10;;;;;;;22.30;10.15;;;10.80;99.90;;;;;;5000415;28;20099;-82
2022/04/14 01:46:37;;;;;;;18.55;9.25;;;10.80;99.90;;;;;;5083665;22;20044;-66
2022/04/14 01:49:03;;;;;;;25.42;10.25;;;10.70;99.90;;;;;;5059659;28;20060;-66
2022/04/14 01:51:29;;;;;;;15.90;9.18;;;10.70;99.90;;;;;;5047925;28;20120;-67
2022/04/14 01:53:55;;;;;;;17.73;9.57;;;10.70;99.90;;;;;;5058643;28;20107;-66
2022/04/14 01:56:23;;;;;;;18.30;11.00;;;10.70;99.90;;;;;;5058203;28;20048;-66
2022/04/14 01:58:55;;;;;;;21.95;10.25;;;10.70;99.90;;;;;;5046412;28;20045;-66
2022/04/14 02:01:21;;;;;;;19.48;10.63;;;10.60;99.90;;;;;;5057731;28;20111;-66
2022/04/14 02:03:48;;;;;;;18.48;10.38;;;10.60;99.90;;;;;;5045831;28;20516;-66
2022/04/14 02:06:14;;;;;;;;;;;10.60;99.90;;;;;;5042072;28;20033;-68
2022/04/14 02:08:39;;;;;;;18.52;9.98;;;10.60;99.90;;;;;;5059972;28;19920;-67
2022/04/14 02:11:06;;;;;;;22.43;9.80;;;10.50;99.90;;;;;;5058994;28;20035;-67
2022/04/14 02:13:33;;;;;;;20.30;10.77;;;10.50;99.90;;;;;;5043425;28;20431;-67
2022/04/14 02:16:01;;;;;;;21.67;11.20;;;10.40;99.90;;;;;;5037466;28;20040;-67
2022/04/14 02:18:27;;;;;;;20.43;11.00;;;10.40;99.90;;;;;;5046688;28;20048;-68
2022/04/14 02:20:53;;;;;;;25.37;11.00;;;10.40;99.90;;;;;;5037955;28;20149;-67
2022/04/14 02:23:18;;;;;;;23.43;11.90;;;10.40;99.90;;;;;;5058774;28;20036;-67
2022/04/14 02:25:47;;;;;;;20.48;10.95;;;10.30;99.90;;;;;;5061728;28;20040;-67
2022/04/14 02:28:16;;;;;;;22.77;11.82;;;10.30;99.90;;;;;;5061420;28;20044;-67
2022/04/14 02:30:41;;;;;;;22.88;11.48;;;10.30;99.90;;;;;;5040210;28;20090;-67
2022/04/14 02:33:09;;;;;;;22.50;12.70;;;10.20;99.90;;;;;;5058738;28;20037;-67
2022/04/14 02:35:34;;;;;;;23.13;12.25;;;10.20;99.90;;;;;;5063769;28;20068;-68
2022/04/14 02:38:00;;;;;;;20.43;11.87;;;10.20;99.90;;;;;;5060594;28;20088;-67
2022/04/14 02:40:28;;;;;;;22.60;12.40;;;10.20;99.90;;;;;;5034020;28;20045;-68
2022/04/14 02:42:56;;;;;;;28.55;13.85;;;10.20;99.90;;;;;;5063924;28;20044;-67
2022/04/14 02:45:23;;;;;;;25.40;12.77;;;10.20;99.90;;;;;;5059804;28;20103;-67
2022/04/14 02:47:48;;;;;;;22.25;12.63;;;10.20;99.90;;;;;;5059362;28;20048;-67
2022/04/14 02:50:14;;;;;;;25.08;12.65;;;10.10;99.90;;;;;;5055580;28;20063;-67
2022/04/14 02:52:42;;;;;;;26.17;12.60;;;10.10;99.90;;;;;;5054380;28;20058;-67
2022/04/14 02:55:08;;;;;;;23.67;12.73;;;10.10;99.90;;;;;;5037806;28;20048;-67
2022/04/14 02:57:34;;;;;;;22.30;12.88;;;10.00;99.90;;;;;;5057319;28;21382;-67
2022/04/14 03:00:00;;;;;;;27.15;12.98;;;10.00;99.90;;;;;;5049246;28;20109;-67
2022/04/14 03:02:25;;;;;;;26.88;14.13;;;10.00;99.90;;;;;;5049103;28;20079;-67
2022/04/14 03:04:51;;;;;;;24.03;12.97;;;10.00;99.90;;;;;;5056222;28;20094;-67
2022/04/14 03:07:17;;;;;;;25.23;13.48;;;10.00;99.90;;;;;;5058331;28;20233;-67
2022/04/14 03:09:43;;;;;;;25.55;13.55;;;10.00;99.90;;;;;;5041264;28;20143;-67
2022/04/14 03:12:09;;;;;;;26.47;13.37;;;9.90;99.90;;;;;;5054908;28;20194;-66
2022/04/14 03:14:34;;;;;;;24.83;13.77;;;9.90;99.90;;;;;;5046344;28;20047;-66
2022/04/14 03:17:00;;;;;;;27.07;14.03;;;9.90;99.90;;;;;;5033687;28;20044;-66
2022/04/14 03:19:26;;;;;;;23.27;13.93;;;9.90;99.90;;;;;;5058302;28;20374;-65
2022/04/14 03:21:52;;;;;;;25.07;13.13;;;9.80;99.90;;;;;;5038379;28;20044;-65
2022/04/14 03:24:18;;;;;;;25.17;13.63;;;9.80;99.90;;;;;;5060787;28;20157;-66
2022/04/14 03:26:43;;;;;;;27.77;15.00;;;9.70;99.90;;;;;;5061866;28;20563;-65
2022/04/14 03:29:09;;;;;;;23.47;13.47;;;9.70;99.90;;;;;;5064743;28;20124;-66
2022/04/14 03:31:34;;;;;;;28.90;15.60;;;9.70;99.90;;;;;;5042058;28;20098;-66
2022/04/14 03:34:00;;;;;;;26.60;15.00;;;9.70;99.90;;;;;;5053624;28;20417;-67
2022/04/14 03:36:26;;;;;;;24.90;15.17;;;9.70;99.90;;;;;;5060862;28;20445;-67
2022/04/14 03:38:51;;;;;;;26.80;14.33;;;9.60;99.90;;;;;;5061223;28;20301;-67
2022/04/14 03:41:17;;;;;;;30.70;15.57;;;9.60;99.90;;;;;;5058049;28;20397;-67
2022/04/14 03:43:42;;;;;;;24.70;14.67;;;9.60;99.90;;;;;;5057525;28;20144;-67
2022/04/14 03:46:08;;;;;;;25.13;14.10;;;9.60;99.90;;;;;;5054199;28;20036;-67
2022/04/14 03:48:35;;;;;;;33.90;13.70;;;9.60;99.90;;;;;;5061847;28;20078;-66
2022/04/14 03:51:00;;;;;;;25.42;15.38;;;9.60;99.90;;;;;;5053626;28;20480;-67
2022/04/14 03:53:26;;;;;;;22.30;14.25;;;9.50;99.90;;;;;;5058460;28;20028;-67
2022/04/14 03:55:52;;;;;;;27.77;13.88;;;9.50;99.90;;;;;;5056981;28;20037;-67
2022/04/14 03:58:17;;;;;;;31.67;15.27;;;9.50;99.90;;;;;;5057260;28;20052;-67
2022/04/14 04:00:43;;;;;;;30.60;16.10;;;9.50;99.90;;;;;;5059436;28;20099;-67
2022/04/14 04:03:10;;;;;;;28.27;15.32;;;9.50;99.90;;;;;;5060404;28;20052;-66
2022/04/14 04:05:36;;;;;;;25.85;13.70;;;9.50;99.90;;;;;;5055591;28;20076;-66
2022/04/14 04:08:02;;;;;;;30.35;15.32;;;9.50;99.90;;;;;;5042302;28;20040;-66
2022/04/14 04:10:28;;;;;;;25.33;14.70;;;9.40;99.90;;;;;;5059298;28;20033;-66
2022/04/14 04:12:53;;;;;;;25.60;14.83;;;9.40;99.90;;;;;;5058611;28;20044;-66
2022/04/14 04:15:19;;;;;;;25.00;14.20;;;9.40;99.90;;;;;;5043817;28;20282;-67
2022/04/14 04:17:46;;;;;;;28.80;15.10;;;9.40;99.90;;;;;;5053015;28;20279;-66
2022/04/14 04:20:12;;;;;;;24.77;15.43;;;9.40;99.90;;;;;;5055656;28;20037;-67
2022/04/14 04:22:38;;;;;;;31.67;16.95;;;9.40;99.90;;;;;;5038991;28;20426;-66
2022/04/14 04:25:04;;;;;;;31.33;15.43;;;9.40;99.90;;;;;;5010555;28;20041;-67
2022/04/14 04:27:30;;;;;;;31.15;16.45;;;9.40;99.90;;;;;;5040590;28;20469;-66
2022/04/14 04:29:55;;;;;;;28.40;16.33;;;9.40;99.90;;;;;;5061097;28;20033;-66
2022/04/14 04:32:21;;;;;;;30.77;15.93;;;9.30;99.90;;;;;;5052553;28;20445;-67
2022/04/14 04:34:47;;;;;;;33.77;16.13;;;9.30;99.90;;;;;;5050662;28;20324;-67
2022/04/14 04:37:12;;;;;;;24.13;15.63;;;9.30;99.90;;;;;;5044233;28;20556;-67
2022/04/14 04:39:38;;;;;;;30.00;16.30;;;9.30;99.90;;;;;;5059617;28;20462;-67
2022/04/14 04:42:04;;;;;;;27.70;16.27;;;9.30;99.90;;;;;;5058833;28;20346;-67
2022/04/14 04:44:29;;;;;;;26.85;16.05;;;9.20;99.90;;;;;;5060420;28;20040;-67
2022/04/14 04:46:55;;;;;;;31.23;16.43;;;9.20;99.90;;;;;;5059927;28;20063;-67
2022/04/14 04:49:21;;;;;;;29.53;16.63;;;9.20;99.90;;;;;;5060408;28;20099;-67
2022/04/14 04:51:46;;;;;;;30.20;16.77;;;9.20;99.90;;;;;;5059409;28;20673;-67
2022/04/14 04:54:12;;;;;;;31.63;16.33;;;9.10;99.90;;;;;;5046500;28;20036;-67
2022/04/14 04:56:37;;;;;;;32.23;17.40;;;9.10;99.90;;;;;;5059095;28;20051;-67
2022/04/14 04:59:03;;;;;;;27.90;15.70;;;9.10;99.90;;;;;;5062324;28;20040;-67
2022/04/14 05:01:28;;;;;;;35.10;17.90;;;9.10;99.90;;;;;;5062918;28;20535;-67
2022/04/14 05:03:54;;;;;;;35.83;17.10;;;9.10;99.90;;;;;;5059308;28;20048;-67
2022/04/14 05:06:20;;;;;;;28.90;16.20;;;9.10;99.90;;;;;;5064176;28;20097;-67
2022/04/14 05:08:47;;;;;;;28.60;16.37;;;9.00;99.90;;;;;;5049223;28;20416;-67
2022/04/14 05:11:13;;;;;;;30.67;17.02;;;9.00;99.90;;;;;;5059766;28;20120;-67
2022/04/14 05:13:41;;;;;;;33.47;18.02;;;9.10;99.90;;;;;;5059164;28;20033;-67
2022/04/14 05:16:09;;;;;;;34.80;18.87;;;9.00;99.90;;;;;;5040014;28;20083;-67
2022/04/14 05:18:35;;;;;;;32.03;18.08;;;9.10;99.90;;;;;;5046515;28;20319;-68
2022/04/14 05:21:00;;;;;;;38.20;18.73;;;9.10;99.90;;;;;;5038772;28;20080;-67
2022/04/14 05:23:26;;;;;;;36.47;20.50;;;9.10;99.90;;;;;;5060044;28;20037;-67
2022/04/14 05:25:51;;;;;;;35.60;19.80;;;9.10;99.90;;;;;;5057228;28;20040;-67
2022/04/14 05:28:17;;;;;;;33.93;18.73;;;9.10;99.90;;;;;;5042669;28;20055;-67
2022/04/14 05:30:42;;;;;;;34.93;19.80;;;9.20;99.90;;;;;;5024026;28;20036;-71
2022/04/14 05:33:10;;;;;;;32.97;18.90;;;9.20;99.90;;;;;;5062415;28;20036;-67
2022/04/14 05:35:37;;;;;;;37.88;19.27;;;9.30;99.90;;;;;;5064667;28;20331;-69
2022/04/14 05:38:04;;;;;;;35.58;19.20;;;9.30;99.90;;;;;;5043830;28;20044;-69
2022/04/14 05:40:30;;;;;;;39.80;21.60;;;9.30;99.90;;;;;;5048340;28;20546;-74
2022/04/14 05:42:55;;;;;;;36.43;19.50;;;9.40;99.90;;;;;;5047508;28;20041;-71
2022/04/14 05:45:21;;;;;;;33.37;19.43;;;9.40;99.90;;;;;;5047067;28;20044;-68
2022/04/14 05:47:47;;;;;;;40.93;20.57;;;9.50;99.90;;;;;;5064216;28;20114;-71
2022/04/14 05:50:13;;;;;;;34.93;19.30;;;9.50;99.90;;;;;;5041811;28;20472;-69
2022/04/14 05:52:38;;;;;;;35.50;19.23;;;9.50;99.90;;;;;;5049140;28;20290;-68
2022/04/14 05:55:04;;;;;;;36.40;20.93;;;9.60;99.90;;;;;;5062928;28;21033;-68
2022/04/14 05:57:31;;;;;;;39.33;19.95;;;9.60;99.90;;;;;;5066536;28;20032;-69
2022/04/14 05:59:59;;;;;;;34.50;18.80;;;9.60;99.90;;;;;;5048397;28;20040;-69
2022/04/14 06:02:26;;;;;;;40.40;19.80;;;9.70;99.90;;;;;;5049807;28;20120;-71
2022/04/14 06:04:53;;;;;;;43.25;20.55;;;9.80;99.90;;;;;;5041361;28;20051;-67
2022/04/14 06:07:18;;;;;;;36.67;18.30;;;9.80;99.90;;;;;;5062421;28;20048;-72
2022/04/14 06:09:44;;;;;;;30.57;18.60;;;9.90;99.90;;;;;;5048582;28;20032;-75
2022/04/14 06:12:12;;;;;;;41.37;20.17;;;9.90;99.90;;;;;;5022487;28;20539;-72
2022/04/14 06:14:37;;;;;;;36.35;18.80;;;9.90;99.90;;;;;;5065686;28;20122;-74
2022/04/14 06:17:03;;;;;;;35.50;18.60;;;10.00;99.90;;;;;;5049182;28;20064;-68
2022/04/14 06:19:29;;;;;;;33.33;19.42;;;10.00;99.90;;;;;;5049879;28;20527;-67
2022/04/14 06:21:55;;;;;;;32.83;18.92;;;10.00;99.90;;;;;;5027950;28;20044;-67
2022/04/14 06:24:20;;;;;;;39.27;19.03;;;10.00;99.90;;;;;;5065580;28;20043;-67
2022/04/14 06:26:46;;;;;;;39.13;18.33;;;10.00;99.90;;;;;;5058560;28;20059;-70
2022/04/14 06:29:12;;;;;;;37.60;19.33;;;10.10;99.90;;;;;;5060534;28;20466;-67
2022/04/14 06:31:37;;;;;;;33.20;19.93;;;10.10;99.90;;;;;;5046034;28;20033;-67
2022/04/14 06:34:05;;;;;;;32.53;18.90;;;10.10;99.90;;;;;;5044716;28;20381;-67
2022/04/14 06:36:32;;;;;;;31.03;17.97;;;10.20;99.90;;;;;;5060649;28;20036;-67
2022/04/14 06:38:57;;;;;;;32.08;17.30;;;10.20;99.90;;;;;;5031522;28;20090;-67
2022/04/14 06:41:23;;;;;;;35.57;18.90;;;10.30;99.90;;;;;;5027258;28;20048;-67
2022/04/14 06:43:49;;;;;;;37.55;20.30;;;10.30;99.90;;;;;;5061979;28;20520;-67
2022/04/14 06:46:18;;;;;;;31.05;17.90;;;10.40;99.90;;;;;;5065374;28;20120;-67
2022/04/14 06:48:44;;;;;;;36.63;16.90;;;10.50;99.90;;;;;;5046624;28;20044;-64
2022/04/14 06:51:11;;;;;;;36.10;19.35;;;10.50;99.90;;;;;;5061029;28;20043;-68
2022/04/14 06:53:37;;;;;;;36.08;18.00;;;10.60;99.90;;;;;;5047044;28;20036;-67
2022/04/14 06:56:04;;;;;;;30.98;16.02;;;10.60;99.90;;;;;;5038897;28;20151;-67
2022/04/14 06:58:30;;;;;;;27.35;16.25;;;10.60;99.90;;;;;;5064959;28;20041;-66
2022/04/14 07:00:55;;;;;;;28.80;15.93;;;10.70;99.90;;;;;;5061594;28;20063;-66
2022/04/14 07:03:26;;;;;;;37.67;18.67;;;10.80;99.90;;;;;;5062947;28;20056;-66
2022/04/14 07:05:56;;;;;;;28.75;16.63;;;10.90;99.90;;;;;;5044614;28;20033;-66
2022/04/14 07:08:24;;;;;;;28.77;15.77;;;10.90;99.90;;;;;;5058906;28;20040;-66
2022/04/14 07:10:51;;;;;;;27.10;16.00;;;11.00;99.90;;;;;;5060538;28;20051;-67
2022/04/14 07:13:17;;;;;;;25.02;14.68;;;11.00;99.90;;;;;;5059561;28;20041;-67
2022/04/14 07:15:43;;;;;;;24.23;14.55;;;11.10;99.90;;;;;;5042514;28;20457;-66
2022/04/14 07:18:08;;;;;;;27.70;14.20;;;11.10;99.90;;;;;;5046255;28;20042;-67
2022/04/14 07:20:34;;;;;;;27.97;14.57;;;11.20;99.90;;;;;;5061572;28;20743;-67
2022/04/14 07:23:02;;;;;;;28.40;14.50;;;11.20;99.90;;;;;;5055853;28;20032;-66
2022/04/14 07:25:29;;;;;;;22.60;13.13;;;11.30;99.90;;;;;;5051442;28;20047;-66
2022/04/14 07:27:54;;;;;;;;;;;11.40;99.90;;;;;;5052564;28;20040;-66
2022/04/14 07:30:20;;;;;;;24.38;13.05;;;11.50;99.90;;;;;;5035031;28;19928;-67
2022/04/14 07:32:46;;;;;;;25.50;12.90;;;11.50;99.90;;;;;;5055467;28;20024;-67
2022/04/14 07:35:13;;;;;;;25.83;12.77;;;11.60;99.90;;;;;;5041666;28;20043;-66
2022/04/14 07:37:38;;;;;;;20.38;11.77;;;11.70;99.90;;;;;;5057375;28;20109;-66
2022/04/14 07:40:10;;;;;;;22.27;11.80;;;11.80;99.90;;;;;;5063228;28;20036;-66
2022/04/14 07:42:38;;;;;;;22.15;12.90;;;11.90;99.90;;;;;;5058072;28;20417;-67
2022/04/14 07:45:06;;;;;;;25.60;11.68;;;12.00;99.90;;;;;;5061791;28;20067;-66
2022/04/14 07:47:31;;;;;;;22.70;11.80;;;12.00;99.90;;;;;;5084843;22;20043;-71
2022/04/14 07:49:57;;;;;;;19.73;12.03;;;12.10;99.90;;;;;;5060614;28;20032;-70
2022/04/14 07:52:23;;;;;;;25.23;12.50;;;12.10;99.90;;;;;;5063707;28;20667;-71
2022/04/14 07:54:49;;;;;;;22.03;11.03;;;12.20;99.90;;;;;;5076482;28;20040;-72
2022/04/14 07:57:14;;;;;;;19.02;11.45;;;12.30;99.90;;;;;;5064359;28;20040;-71
2022/04/14 07:59:40;;;;;;;25.53;12.00;;;12.40;99.90;;;;;;5083237;28;20036;-70
2022/04/14 08:02:06;;;;;;;24.40;12.18;;;12.50;99.90;;;;;;5067098;28;20032;-71
2022/04/14 08:04:32;;;;;;;21.15;11.43;;;12.60;99.90;;;;;;5075210;28;20421;-71
2022/04/14 08:06:57;;;;;;;23.63;11.37;;;12.60;99.90;;;;;;5057944;28;20130;-71
2022/04/14 08:09:23;;;;;;;19.37;10.60;;;12.70;99.90;;;;;;5056978;28;20036;-71
2022/04/14 08:11:48;;;;;;;16.13;10.20;;;12.80;99.90;;;;;;5063756;28;20051;-71
2022/04/14 08:14:14;;;;;;;19.35;11.50;;;12.90;99.90;;;;;;5082165;28;20137;-71
2022/04/14 08:16:40;;;;;;;19.70;10.63;;;13.00;99.90;;;;;;5084690;28;20051;-70
2022/04/14 08:19:05;;;;;;;23.30;11.63;;;13.10;99.90;;;;;;5061385;28;20451;-71
2022/04/14 08:21:31;;;;;;;21.03;10.67;;;13.10;99.90;;;;;;5063724;28;20047;-71
2022/04/14 08:23:58;;;;;;;23.77;11.85;;;13.20;99.90;;;;;;5074879;28;20408;-71
2022/04/14 08:26:25;;;;;;;23.45;10.63;;;13.30;99.90;;;;;;5062292;28;20109;-71
2022/04/14 08:28:53;;;;;;;22.00;11.68;;;13.40;99.90;;;;;;5068341;28;20306;-70
2022/04/14 08:31:21;;;;;;;20.88;11.93;;;13.50;99.90;;;;;;5066530;28;20051;-70
2022/04/14 08:33:48;;;;;;;19.23;11.68;;;13.60;99.90;;;;;;5051214;28;20423;-71
2022/04/14 08:36:15;;;;;;;21.35;11.00;;;13.60;99.90;;;;;;5067966;28;20043;-71
2022/04/14 08:38:46;;;;;;;17.40;10.82;;;13.70;99.90;;;;;;5090406;28;20147;-71
2022/04/14 08:41:14;;;;;;;18.40;10.63;;;13.80;99.90;;;;;;5071587;28;20044;-71
2022/04/14 08:43:48;;;;;;;16.63;10.30;;;13.90;99.90;;;;;;5065347;28;20389;-71
2022/04/14 08:46:15;;;;;;;19.73;10.32;;;14.10;99.90;;;;;;5049799;28;20043;-71
2022/04/14 08:48:42;;;;;;;16.92;9.90;;;14.20;99.90;;;;;;5051990;28;20050;-71
2022/04/14 08:51:10;;;;;;;18.90;11.15;;;14.30;99.90;;;;;;5078014;28;20049;-70
2022/04/14 08:53:38;;;;;;;15.88;10.05;;;14.40;99.90;;;;;;5068802;28;20058;-71
2022/04/14 08:56:05;;;;;;;16.27;9.68;;;14.40;99.90;;;;;;5078971;28;20047;-70
2022/04/14 08:58:32;;;;;;;16.02;9.02;;;14.50;99.90;;;;;;5067498;28;20368;-71
2022/04/14 09:00:58;;;;;;;;;;;14.60;99.90;;;;;;5079592;28;20039;-70
2022/04/14 09:03:27;;;;;;;15.98;8.95;;;14.70;99.90;;;;;;5073415;28;19916;-71
2022/04/14 09:05:55;;;;;;;16.50;8.55;;;14.70;99.90;;;;;;5066979;28;20048;-71
2022/04/14 09:08:21;;;;;;;15.73;7.72;;;14.80;99.90;;;;;;5071263;28;20119;-70
2022/04/14 09:10:48;;;;;;;20.13;8.20;;;14.90;99.90;;;;;;5085482;28;20177;-71
2022/04/14 09:13:14;;;;;;;13.45;7.45;;;14.90;99.90;;;;;;5081362;28;20039;-70
2022/04/14 09:15:40;;;;;;;15.98;7.70;;;15.00;99.90;;;;;;5056985;28;20040;-70
2022/04/14 09:18:07;;;;;;;14.93;7.70;;;15.00;99.90;;;;;;5081118;28;20041;-71
2022/04/14 09:20:37;;;;;;;15.30;7.28;;;15.10;99.90;;;;;;5062203;28;20293;-71
2022/04/14 09:23:27;;;;;;;19.30;7.68;;;15.20;99.90;;;;;;5084904;28;20484;-71
2022/04/14 09:26:14;;;;;;;12.90;7.13;;;15.30;99.90;;;;;;5075815;28;20054;-71
2022/04/14 09:29:04;;;;;;;15.23;6.55;;;15.30;99.90;;;;;;5086304;28;20040;-71
2022/04/14 09:31:29;;;;;;;15.07;7.70;;;15.40;99.90;;;;;;5080338;28;20286;-71
2022/04/14 09:33:55;;;;;;;11.88;7.13;;;15.40;99.90;;;;;;5085247;28;20523;-71
2022/04/14 09:36:23;;;;;;;9.70;5.78;;;15.50;99.90;;;;;;5058316;28;20043;-71
2022/04/14 09:39:00;;;;;;;11.02;5.80;;;15.60;99.90;;;;;;5085959;28;20451;-71
2022/04/14 09:41:31;;;;;;;16.77;6.20;;;15.80;99.90;;;;;;5063591;28;20044;-71
2022/04/14 09:43:58;;;;;;;14.50;6.90;;;15.90;99.90;;;;;;5068116;28;20095;-71
2022/04/14 09:46:24;;;;;;;12.93;6.20;;;15.90;99.90;;;;;;5080486;28;20531;-70
2022/04/14 09:49:00;;;;;;;13.20;6.90;;;16.00;99.90;;;;;;5083506;28;20103;-70
2022/04/14 09:51:26;;;;;;;14.13;6.55;;;16.00;99.90;;;;;;5083773;28;20044;-70
2022/04/14 09:54:15;;;;;;;9.00;5.43;;;16.10;99.90;;;;;;5059582;28;20044;-71
2022/04/14 09:56:47;;;;;;;11.43;6.05;;;16.20;99.90;;;;;;5084440;28;20071;-71
2022/04/14 09:59:15;;;;;;;11.45;5.15;;;16.40;99.90;;;;;;5085733;28;20230;-70
2022/04/14 10:01:41;;;;;;;7.93;4.30;;;16.40;99.90;;;;;;5068116;28;20510;-70
2022/04/14 10:04:10;;;;;;;;;;;16.50;99.90;;;;;;5064195;28;20127;-70
2022/04/14 10:06:35;;;;;;;9.05;4.35;;;16.50;99.40;;;;;;5066797;28;19916;-71
2022/04/14 10:09:02;;;;;;;7.65;3.60;;;16.60;99.90;;;;;;5067271;28;20031;-70
2022/04/14 10:11:30;;;;;;;8.07;4.35;;;16.60;99.90;;;;;;5067681;28;20051;-70
2022/04/14 10:14:23;;;;;;;11.60;4.38;;;16.60;99.90;;;;;;5067900;28;20093;-70
2022/04/14 10:16:49;;;;;;;9.10;4.25;;;16.70;98.80;;;;;;5064835;28;20101;-70
2022/04/14 10:19:15;;;;;;;12.77;3.70;;;16.80;99.90;;;;;;5083203;28;20046;-70
2022/04/14 10:21:43;;;;;;;5.45;3.22;;;16.80;97.80;;;;;;5082328;28;20093;-70
2022/04/14 10:24:09;;;;;;;7.30;3.30;;;16.80;96.90;;;;;;5079387;28;20032;-70
2022/04/14 10:26:35;;;;;;;6.68;2.40;;;16.80;98.50;;;;;;5085522;28;20178;-71
2022/04/14 10:29:03;;;;;;;4.97;2.33;;;16.80;97.80;;;;;;5084986;28;20499;-71
2022/04/14 10:31:36;;;;;;;6.25;1.90;;;16.70;98.20;;;;;;5085594;28;20067;-70
2022/04/14 10:34:04;;;;;;;5.10;2.17;;;16.70;96.10;;;;;;5086182;28;20080;-70
2022/04/14 10:36:34;;;;;;;5.72;1.85;;;16.80;95.90;;;;;;5086979;28;20031;-71
2022/04/14 10:39:01;;;;;;;4.05;1.88;;;16.90;95.10;;;;;;5082543;28;20044;-70
2022/04/14 10:41:32;;;;;;;5.32;1.55;;;16.90;94.90;;;;;;5076811;28;20037;-71
2022/04/14 10:44:02;;;;;;;6.88;2.42;;;16.90;91.10;;;;;;5080863;28;20036;-71
2022/04/14 10:46:32;;;;;;;5.22;2.53;;;16.90;90.60;;;;;;5064382;28;20055;-71
2022/04/14 10:49:22;;;;;;;7.20;2.15;;;17.00;89.30;;;;;;5080604;28;20036;-70
2022/04/14 10:51:50;;;;;;;7.78;2.78;;;17.00;87.40;;;;;;5062871;28;20102;-71
2022/04/14 10:54:19;;;;;;;5.38;2.63;;;17.10;92.60;;;;;;5058600;28;20040;-71
2022/04/14 10:56:47;;;;;;;7.72;2.55;;;17.30;93.40;;;;;;5084978;28;20519;-71
2022/04/14 10:59:42;;;;;;;9.70;3.70;;;17.50;93.20;;;;;;5083574;28;20036;-70
2022/04/14 11:02:07;;;;;;;6.88;3.15;;;17.60;91.00;;;;;;5061790;28;20112;-70
2022/04/14 11:04:42;;;;;;;6.55;1.85;;;17.60;92.70;;;;;;5065849;28;20044;-70
2022/04/14 11:07:16;;;;;;;4.88;2.08;;;17.70;81.70;;;;;;5073123;28;20499;-70
2022/04/14 11:09:52;;;;;;;7.22;2.50;;;17.70;84.70;;;;;;5072804;28;20136;-71
2022/04/14 11:12:22;;;;;;;3.47;2.20;;;17.70;78.70;;;;;;5062012;28;20374;-70
2022/04/14 11:14:50;;;;;;;4.88;2.58;;;17.70;84.60;;;;;;5066860;28;20083;-70
2022/04/14 11:17:42;;;;;;;6.80;2.25;;;17.80;84.00;;;;;;5082255;28;20024;-70
2022/04/14 11:20:44;;;;;;;7.47;2.17;;;17.90;84.70;;;;;;5063389;28;20044;-70
2022/04/14 11:23:24;;;;;;;4.95;2.20;;;18.00;83.10;;;;;;5085167;28;20036;-71
2022/04/14 11:25:50;;;;;;;4.82;1.88;;;18.10;74.00;;;;;;5074979;28;20093;-71
2022/04/14 11:28:33;;;;;;;4.22;2.10;;;18.00;77.30;;;;;;5078863;28;20419;-71
2022/04/14 11:31:04;;;;;;;5.28;2.35;;;18.00;76.10;;;;;;5081649;28;20613;-73
2022/04/14 11:33:30;;;;;;;4.97;2.60;;;17.90;78.70;;;;;;5060074;28;20124;-71
2022/04/14 11:36:16;;;;;;;5.53;2.38;;;17.80;80.10;;;;;;5065869;28;20060;-71
2022/04/14 11:39:00;;;;;;;5.75;2.42;;;17.80;78.20;;;;;;5080065;28;20075;-70
2022/04/14 11:41:36;;;;;;;6.28;2.78;;;17.80;79.90;;;;;;5060929;28;20047;-71
2022/04/14 11:44:31;;;;;;;6.00;2.50;;;17.90;82.90;;;;;;5063167;28;20127;-71
2022/04/14 11:47:16;;;;;;;6.95;3.35;;;17.90;83.60;;;;;;5066816;28;20091;-71
2022/04/14 11:49:41;;;;;;;8.10;2.83;;;18.00;82.70;;;;;;5085193;28;20038;-70
2022/04/14 11:52:07;;;;;;;8.98;3.00;;;18.00;84.20;;;;;;5066866;28;20035;-71
2022/04/14 11:54:35;;;;;;;8.75;3.17;;;18.00;85.10;;;;;;5081873;28;20480;-71
2022/04/14 11:57:07;;;;;;;7.35;2.65;;;18.00;83.90;;;;;;5058159;28;20044;-71
2022/04/14 11:59:36;;;;;;;7.07;2.70;;;18.00;84.20;;;;;;5066053;28;20048;-70
2022/04/14 12:02:14;;;;;;;5.07;2.42;;;18.10;86.20;;;;;;5083937;28;20093;-70
2022/04/14 12:04:48;;;;;;;4.95;2.78;;;18.30;85.20;;;;;;5066724;28;20101;-70
2022/04/14 12:07:15;;;;;;;5.30;2.33;;;18.30;81.30;;;;;;5080580;28;20082;-70
2022/04/14 12:09:41;;;;;;;5.43;2.10;;;18.30;80.00;;;;;;5080198;28;20745;-71
2022/04/14 12:12:13;;;;;;;6.88;1.80;;;18.20;77.30;;;;;;5081422;28;20032;-71
2022/04/14 12:14:43;;;;;;;4.20;1.80;;;18.10;75.60;;;;;;5084160;28;20039;-71
2022/04/14 12:17:09;;;;;;;5.18;2.42;;;18.10;76.10;;;;;;5084127;28;20090;-71
2022/04/14 12:19:43;;;;;;;4.30;1.88;;;18.10;77.30;;;;;;5072492;28;20040;-70
2022/04/14 12:22:09;;;;;;;5.22;2.28;;;18.20;77.20;;;;;;5067503;28;20032;-71
2022/04/14 12:24:35;;;;;;;8.13;2.10;;;18.30;77.90;;;;;;5077781;28;20485;-70
2022/04/14 12:27:01;;;;;;;6.65;2.08;;;18.30;77.40;;;;;;5089507;28;20044;-71
2022/04/14 12:29:27;;;;;;;7.20;2.38;;;18.30;76.20;;;;;;5062378;28;20100;-70
2022/04/14 12:32:17;;;;;;;;;;;18.30;76.50;;;;;;5072363;28;20048;-70
2022/04/14 12:34:44;;;;;;;4.07;1.73;;;18.30;72.20;;;;;;5081944;28;19951;-71
2022/04/14 12:37:15;;;;;;;4.68;1.95;;;18.20;75.50;;;;;;5071891;28;20040;-70
2022/04/14 12:40:02;;;;;;;5.70;2.42;;;18.20;74.90;;;;;;5070146;28;20503;-70
2022/04/14 12:42:35;;;;;;;5.20;2.05;;;18.20;71.20;;;;;;5084360;28;20082;-71